createdAt,value
2019-05-15T00:00:42.483Z,26.65
2019-05-15T00:03:16.091Z,27.32
2019-05-15T00:05:49.515Z,26.33
2019-05-15T00:08:21.468Z,26.60
2019-05-15T00:10:55.938Z,27.00
2019-05-15T00:13:28.272Z,25.85
2019-05-15T00:16:00.458Z,26.85
2019-05-15T00:18:32.261Z,27.27
2019-05-15T00:21:03.925Z,27.32
2019-05-15T00:23:35.793Z,26.50
2019-05-15T00:26:09.303Z,28.75
2019-05-15T00:28:40.955Z,27.67
2019-05-15T00:31:12.768Z,28.62
2019-05-15T00:33:48.112Z,28.30
2019-05-15T00:36:19.408Z,30.15
2019-05-15T00:38:51.278Z,30.15
2019-05-15T00:41:23.059Z,28.23
2019-05-15T00:43:54.878Z,30.17
2019-05-15T00:46:28.902Z,29.70
2019-05-15T00:49:00.079Z,29.37
2019-05-15T00:51:31.727Z,28.32
2019-05-15T00:54:03.439Z,27.45
2019-05-15T00:56:34.975Z,26.48
2019-05-15T00:59:08.378Z,25.05
2019-05-15T01:01:39.951Z,27.20
2019-05-15T01:04:11.675Z,26.90
2019-05-15T01:06:43.271Z,29.90
2019-05-15T01:09:14.958Z,27.87
2019-05-15T01:11:48.618Z,33.40
2019-05-15T01:14:19.839Z,29.10
2019-05-15T01:16:51.503Z,28.55
2019-05-15T01:19:23.248Z,29.57
2019-05-15T01:21:54.860Z,28.98
2019-05-15T01:24:28.242Z,29.95
2019-05-15T01:26:59.751Z,30.50
2019-05-15T01:29:41.872Z,31.02
2019-05-15T01:32:04.833Z,31.07
2019-05-15T01:34:38.410Z,30.97
2019-05-15T01:37:09.851Z,28.00
2019-05-15T01:39:41.501Z,28.07
2019-05-15T01:42:13.122Z,27.73
2019-05-15T01:44:44.781Z,27.00
2019-05-15T01:47:18.772Z,27.82
2019-05-15T01:49:54.187Z,25.72
2019-05-15T01:52:27.816Z,25.68
2019-05-15T01:54:59.152Z,26.20
2019-05-15T01:57:30.908Z,28.45
2019-05-15T02:00:02.548Z,27.77
2019-05-15T02:02:34.378Z,28.55
2019-05-15T02:05:08.461Z,26.23
2019-05-15T02:07:40.419Z,28.85
2019-05-15T02:10:12.209Z,28.30
2019-05-15T02:12:43.869Z,27.73
2019-05-15T02:15:15.404Z,28.47
2019-05-15T02:17:48.132Z,28.87
2019-05-15T02:20:19.878Z,29.07
2019-05-15T02:22:51.595Z,28.35
2019-05-15T02:25:23.206Z,28.80
2019-05-15T02:27:54.905Z,27.77
2019-05-15T02:30:30.258Z,27.37
2019-05-15T02:33:00.993Z,26.23
2019-05-15T02:35:32.603Z,25.17
2019-05-15T02:38:04.286Z,25.43
2019-05-15T02:40:35.892Z,26.27
2019-05-15T02:43:10.024Z,26.10
2019-05-15T02:45:42.385Z,25.37
2019-05-15T02:48:14.503Z,26.12
2019-05-15T02:50:49.824Z,26.60
2019-05-15T02:53:19.493Z,27.58
2019-05-15T02:55:51.180Z,27.15
2019-05-15T02:58:22.987Z,28.25
2019-05-15T03:00:54.579Z,25.88
2019-05-15T03:03:29.152Z,26.62
2019-05-15T03:06:00.317Z,26.62
2019-05-15T03:08:32.257Z,26.48
2019-05-15T03:11:03.838Z,23.67
2019-05-15T03:13:35.498Z,23.40
2019-05-15T03:16:10.097Z,23.42
2019-05-15T03:18:42.056Z,21.93
2019-05-15T03:21:13.669Z,22.13
2019-05-15T03:23:45.392Z,21.37
2019-05-15T03:26:19.746Z,19.92
2019-05-15T03:28:51.604Z,20.90
2019-05-15T03:31:43.525Z,19.67
2019-05-15T03:34:02.030Z,20.82
2019-05-15T03:36:31.707Z,19.57
2019-05-15T03:39:05.111Z,18.80
2019-05-15T03:41:39.239Z,20.00
2019-05-15T03:44:11.566Z,19.32
2019-05-15T03:46:43.240Z,18.48
2019-05-15T03:49:15.006Z,18.12
2019-05-15T03:51:49.725Z,18.55
2019-05-15T03:54:20.104Z,18.82
2019-05-15T03:56:51.737Z,19.52
2019-05-15T03:59:23.657Z,22.67
2019-05-15T04:01:55.431Z,18.15
2019-05-15T04:04:29.731Z,18.32
2019-05-15T04:07:00.704Z,18.27
2019-05-15T04:09:34.327Z,18.67
2019-05-15T04:12:09.427Z,17.73
2019-05-15T04:14:42.111Z,17.82
2019-05-15T04:17:13.746Z,18.35
2019-05-15T04:19:45.426Z,19.95
2019-05-15T04:22:19.802Z,20.20
2019-05-15T04:24:53.923Z,17.77
2019-05-15T04:27:28.976Z,19.00
2019-05-15T04:30:01.363Z,17.35
2019-05-15T04:32:33.132Z,18.20
2019-05-15T04:35:09.211Z,20.15
2019-05-15T04:37:41.494Z,18.50
2019-05-15T04:40:13.403Z,18.15
2019-05-15T04:42:45.153Z,18.27
2019-05-15T04:45:19.430Z,18.82
2019-05-15T04:47:51.980Z,18.20
2019-05-15T04:50:23.663Z,18.90
2019-05-15T04:52:59.024Z,18.32
2019-05-15T04:55:29.319Z,18.93
2019-05-15T04:58:02.171Z,18.95
2019-05-15T05:00:53.916Z,18.98
2019-05-15T05:03:29.216Z,19.05
2019-05-15T05:05:59.973Z,19.35
2019-05-15T05:08:31.783Z,19.65
2019-05-15T05:11:03.577Z,20.85
2019-05-15T05:13:35.245Z,20.80
2019-05-15T05:16:09.605Z,23.12
2019-05-15T05:18:41.636Z,25.27
2019-05-15T05:21:13.953Z,24.63
2019-05-15T05:23:48.348Z,26.33
2019-05-15T05:26:20.272Z,25.55
2019-05-15T05:28:52.014Z,26.00
2019-05-15T05:31:23.749Z,26.57
2019-05-15T05:33:57.724Z,27.60
2019-05-15T05:36:29.024Z,26.80
2019-05-15T05:39:01.553Z,25.70
2019-05-15T05:41:33.403Z,25.08
2019-05-15T05:44:05.138Z,24.05
2019-05-15T05:46:36.872Z,23.32
2019-05-15T05:49:08.478Z,22.67
2019-05-15T05:51:40.293Z,21.52
2019-05-15T05:54:11.953Z,22.60
2019-05-15T05:56:43.635Z,22.00
2019-05-15T05:59:15.469Z,19.27
2019-05-15T06:01:48.521Z,22.05
2019-05-15T06:04:21.375Z,22.70
2019-05-15T06:07:06.048Z,20.88
2019-05-15T06:09:32.583Z,17.85
2019-05-15T06:12:04.325Z,22.02
2019-05-15T06:14:38.059Z,20.77
2019-05-15T06:17:10.171Z,23.85
2019-05-15T06:19:41.850Z,22.70
2019-05-15T06:22:14.846Z,24.45
2019-05-15T06:24:49.167Z,23.90
2019-05-15T06:27:21.511Z,23.18
2019-05-15T06:29:53.166Z,23.52
2019-05-15T06:32:24.958Z,24.27
2019-05-15T06:34:57.903Z,22.22
2019-05-15T06:37:29.698Z,23.22
2019-05-15T06:40:02.182Z,22.65
2019-05-15T06:42:33.857Z,24.05
2019-05-15T06:45:08.261Z,24.10
2019-05-15T06:47:40.145Z,24.70
2019-05-15T06:50:12.967Z,23.87
2019-05-15T06:52:44.649Z,24.72
2019-05-15T06:55:18.285Z,23.07
2019-05-15T06:57:49.808Z,23.95
2019-05-15T07:00:21.463Z,22.37
2019-05-15T07:02:53.281Z,22.07
2019-05-15T07:05:25.063Z,20.88
2019-05-15T07:07:58.528Z,21.15
2019-05-15T07:10:30.279Z,20.25
2019-05-15T07:13:03.280Z,20.95
2019-05-15T07:15:35.039Z,21.27
2019-05-15T07:18:08.744Z,22.95
2019-05-15T07:20:40.093Z,16.02
2019-05-15T07:23:11.763Z,17.85
2019-05-15T07:25:43.521Z,17.32
2019-05-15T07:28:18.119Z,14.85
2019-05-15T07:30:49.915Z,12.03
2019-05-15T07:33:35.913Z,14.28
2019-05-15T07:35:55.130Z,14.28
2019-05-15T07:38:28.212Z,13.78
2019-05-15T07:41:04.309Z,13.65
2019-05-15T07:43:33.625Z,14.47
2019-05-15T07:46:08.104Z,14.75
2019-05-15T07:48:38.689Z,15.55
2019-05-15T07:51:11.687Z,15.10
2019-05-15T07:53:43.492Z,14.55
2019-05-15T07:56:15.530Z,13.38
2019-05-15T07:58:52.474Z,12.30
2019-05-15T08:01:20.793Z,13.38
2019-05-15T08:04:09.312Z,12.47
2019-05-15T08:06:25.781Z,14.30
2019-05-15T08:08:59.259Z,14.95
2019-05-15T08:11:30.913Z,14.43
2019-05-15T08:14:03.766Z,14.13
2019-05-15T08:16:35.648Z,14.75
2019-05-15T08:19:08.563Z,15.15
2019-05-15T08:21:40.616Z,14.33
2019-05-15T08:24:12.304Z,12.18
2019-05-15T08:26:45.654Z,11.83
2019-05-15T08:29:21.150Z,11.93
2019-05-15T08:31:50.852Z,11.18
2019-05-15T08:34:22.500Z,11.83
2019-05-15T08:36:55.206Z,11.53
2019-05-15T08:39:28.486Z,12.13
2019-05-15T08:42:00.282Z,13.78
2019-05-15T08:44:34.755Z,12.55
2019-05-15T08:47:08.168Z,14.33
2019-05-15T08:49:41.030Z,12.05
2019-05-15T08:52:14.166Z,11.28
2019-05-15T08:54:48.441Z,10.63
2019-05-15T08:57:20.479Z,10.25
2019-05-15T08:59:52.320Z,10.50
2019-05-15T09:02:23.862Z,10.40
2019-05-15T09:04:57.903Z,10.60
2019-05-15T09:07:28.907Z,10.40
2019-05-15T09:10:00.585Z,10.10
2019-05-15T09:12:32.192Z,9.58
2019-05-15T09:15:05.045Z,10.10
2019-05-15T09:17:39.568Z,8.60
2019-05-15T09:20:10.406Z,9.28
2019-05-15T09:22:42.926Z,9.38
2019-05-15T09:25:14.693Z,9.10
2019-05-15T09:27:46.102Z,8.93
2019-05-15T09:30:18.277Z,9.50
2019-05-15T09:32:50.205Z,8.70
2019-05-15T09:35:22.903Z,10.32
2019-05-15T09:37:54.547Z,8.43
2019-05-15T09:40:41.855Z,10.05
2019-05-15T09:43:00.748Z,9.70
2019-05-15T09:45:32.338Z,10.08
2019-05-15T09:48:03.970Z,8.65
2019-05-15T09:50:35.579Z,10.78
2019-05-15T09:53:09.284Z,10.68
2019-05-15T09:55:42.945Z,10.65
2019-05-15T09:58:14.551Z,8.95
2019-05-15T10:00:50.875Z,10.38
2019-05-15T10:03:19.423Z,9.38
2019-05-15T10:05:51.278Z,10.25
2019-05-15T10:08:29.033Z,10.28
2019-05-15T10:10:59.480Z,10.55
2019-05-15T10:13:31.133Z,10.30
2019-05-15T10:16:08.208Z,10.43
2019-05-15T10:18:39.209Z,11.20
2019-05-15T10:21:11.154Z,9.45
2019-05-15T10:23:42.715Z,10.40
2019-05-15T10:26:14.665Z,11.10
2019-05-15T10:28:49.012Z,10.80
2019-05-15T10:31:19.868Z,10.08
2019-05-15T10:33:51.652Z,10.55
2019-05-15T10:36:23.236Z,10.70
2019-05-15T10:38:54.928Z,11.28
2019-05-15T10:41:28.166Z,11.15
2019-05-15T10:44:00.488Z,11.35
2019-05-15T10:46:32.684Z,11.28
2019-05-15T10:49:04.340Z,11.65
2019-05-15T10:51:35.996Z,11.15
2019-05-15T10:54:08.581Z,11.05
2019-05-15T10:56:40.673Z,11.33
2019-05-15T10:59:12.488Z,10.90
2019-05-15T11:01:44.081Z,10.58
2019-05-15T11:04:18.013Z,10.72
2019-05-15T11:06:49.269Z,10.15
2019-05-15T11:09:22.279Z,9.95
2019-05-15T11:11:53.921Z,9.53
2019-05-15T11:14:28.472Z,10.78
2019-05-15T11:16:59.238Z,9.95
2019-05-15T11:19:36.018Z,9.95
2019-05-15T11:22:04.474Z,10.55
2019-05-15T11:24:38.541Z,9.40
2019-05-15T11:27:11.141Z,9.23
2019-05-15T11:29:42.809Z,9.28
2019-05-15T11:32:14.600Z,9.73
2019-05-15T11:34:49.096Z,9.73
2019-05-15T11:37:19.610Z,9.45
2019-05-15T11:39:51.256Z,10.10
2019-05-15T11:42:22.911Z,10.20
2019-05-15T11:44:54.676Z,9.68
2019-05-15T11:47:27.862Z,10.13
2019-05-15T11:49:59.879Z,9.65
2019-05-15T11:52:31.625Z,10.20
2019-05-15T11:55:03.153Z,10.65
2019-05-15T11:57:42.569Z,10.05
2019-05-15T12:00:14.943Z,10.10
2019-05-15T12:02:42.368Z,9.88
2019-05-15T12:05:14.265Z,9.88
2019-05-15T12:07:47.820Z,9.33
2019-05-15T12:10:19.243Z,9.63
2019-05-15T12:12:50.910Z,10.28
2019-05-15T12:15:22.594Z,9.95
2019-05-15T12:17:54.226Z,9.15
2019-05-15T12:20:28.335Z,9.58
2019-05-15T12:22:59.574Z,9.03
2019-05-15T12:25:32.140Z,9.70
2019-05-15T12:28:03.837Z,10.58
2019-05-15T12:30:35.473Z,9.00
2019-05-15T12:33:09.320Z,8.85
2019-05-15T12:35:40.497Z,8.93
2019-05-15T12:38:12.090Z,8.63
2019-05-15T13:01:17.553Z,9.60
2019-05-15T13:03:43.597Z,9.53
2019-05-15T13:06:15.159Z,9.35
2019-05-15T13:08:48.882Z,9.48
2019-05-15T13:11:20.061Z,9.40
2019-05-15T13:13:51.612Z,9.45
2019-05-15T13:16:23.450Z,8.83
2019-05-15T13:18:58.823Z,9.38
2019-05-15T13:21:30.797Z,10.20
2019-05-15T13:24:02.467Z,10.55
2019-05-15T13:26:34.171Z,10.65
2019-05-15T13:29:05.908Z,8.93
2019-05-15T13:31:38.253Z,10.03
2019-05-15T13:34:10.530Z,11.15
2019-05-15T13:36:42.069Z,11.18
2019-05-15T13:39:13.813Z,10.28
2019-05-15T13:41:48.175Z,9.20
2019-05-15T13:44:19.097Z,9.68
2019-05-15T13:46:50.720Z,10.05
2019-05-15T13:49:22.452Z,10.25
2019-05-15T13:51:54.044Z,9.70
2019-05-15T13:54:25.714Z,10.58
2019-05-15T13:56:58.212Z,10.58
2019-05-15T13:59:30.257Z,9.83
2019-05-15T14:02:01.913Z,10.38
2019-05-15T14:04:33.670Z,10.08
2019-05-15T14:07:05.371Z,10.38
2019-05-15T14:09:43.524Z,10.18
2019-05-15T14:12:12.391Z,11.68
2019-05-15T14:14:43.981Z,10.72
2019-05-15T14:17:16.547Z,10.13
2019-05-15T14:19:48.787Z,12.37
2019-05-15T14:22:20.301Z,10.80
2019-05-15T14:24:54.274Z,10.00
2019-05-15T14:27:28.371Z,10.28
2019-05-15T14:29:59.242Z,10.60
2019-05-15T14:32:38.495Z,10.32
2019-05-15T14:35:04.537Z,11.28
2019-05-15T14:37:36.131Z,10.68
2019-05-15T14:40:09.307Z,10.18
2019-05-15T14:42:41.297Z,11.18
2019-05-15T14:45:15.991Z,9.88
2019-05-15T14:47:49.281Z,10.13
2019-05-15T14:50:23.438Z,9.93
2019-05-15T14:52:55.159Z,10.45
2019-05-15T14:55:32.291Z,10.45
2019-05-15T14:58:00.250Z,10.43
2019-05-15T15:00:34.635Z,9.70
2019-05-15T15:03:05.483Z,10.05
2019-05-15T15:05:38.776Z,10.03
2019-05-15T15:08:24.125Z,10.10
2019-05-15T15:10:43.917Z,10.78
2019-05-15T15:13:15.571Z,10.45
2019-05-15T15:15:48.474Z,10.93
2019-05-15T15:18:21.913Z,11.25
2019-05-15T15:20:53.552Z,12.50
2019-05-15T15:23:25.156Z,12.20
2019-05-15T15:25:57.827Z,12.85
2019-05-15T15:28:29.940Z,12.37
2019-05-15T15:31:02.006Z,11.28
2019-05-15T15:33:33.653Z,12.85
2019-05-15T15:36:05.291Z,11.45
2019-05-15T15:38:43.177Z,9.88
2019-05-15T15:41:10.202Z,10.55
2019-05-15T15:43:41.946Z,14.23
2019-05-15T15:46:13.611Z,17.62
2019-05-15T15:48:48.373Z,18.40
2019-05-15T15:51:22.648Z,18.25
2019-05-15T15:53:56.509Z,18.37
2019-05-15T15:56:29.032Z,17.98
2019-05-15T15:59:01.111Z,19.42
2019-05-15T16:01:32.791Z,20.77
2019-05-15T16:04:08.345Z,20.60
2019-05-15T16:06:39.384Z,20.62
2019-05-15T16:09:11.018Z,20.12
2019-05-15T16:11:43.995Z,21.93
2019-05-15T16:14:17.708Z,23.00
2019-05-15T16:16:48.974Z,22.50
2019-05-15T16:19:20.578Z,23.73
2019-05-15T16:21:52.225Z,25.97
2019-05-15T16:24:23.838Z,24.63
2019-05-15T16:26:55.499Z,25.55
2019-05-15T16:29:29.987Z,24.52
2019-05-15T16:32:01.772Z,24.45
2019-05-15T16:34:39.111Z,25.10
2019-05-15T16:37:11.184Z,25.35
2019-05-15T16:39:42.842Z,23.20
2019-05-15T16:42:14.532Z,24.05
2019-05-15T16:44:48.941Z,23.95
2019-05-15T16:47:20.928Z,23.07
2019-05-15T16:49:52.599Z,23.90
2019-05-15T16:52:24.369Z,23.50
2019-05-15T16:54:58.113Z,23.40
2019-05-15T16:57:30.563Z,23.50
2019-05-15T17:00:10.027Z,23.10
2019-05-15T17:02:42.445Z,22.58
2019-05-15T17:05:14.947Z,22.70
2019-05-15T17:07:48.839Z,22.37
2019-05-15T17:10:20.442Z,23.83
2019-05-15T17:12:52.330Z,22.35
2019-05-15T17:15:23.946Z,22.45
2019-05-15T17:17:58.089Z,22.60
2019-05-15T17:20:29.082Z,22.15
2019-05-15T17:23:00.702Z,22.42
2019-05-15T17:25:34.949Z,23.00
2019-05-15T17:28:08.924Z,24.50
2019-05-15T17:30:40.949Z,25.20
2019-05-15T17:33:12.905Z,25.80
2019-05-15T17:35:44.558Z,26.70
2019-05-15T17:38:18.277Z,26.25
2019-05-15T17:40:50.265Z,25.02
2019-05-15T17:43:22.185Z,25.35
2019-05-15T17:45:53.867Z,25.10
2019-05-15T17:48:25.527Z,24.07
2019-05-15T17:50:59.080Z,24.67
2019-05-15T17:53:31.543Z,25.07
2019-05-15T17:56:07.044Z,24.35
2019-05-15T17:58:41.923Z,23.47
2019-05-15T18:01:14.213Z,23.92
2019-05-15T18:03:48.531Z,24.05
2019-05-15T18:06:21.111Z,23.92
2019-05-15T18:08:54.543Z,23.95
2019-05-15T18:11:28.206Z,23.27
2019-05-15T18:13:59.889Z,23.10
2019-05-15T18:16:31.469Z,20.68
2019-05-15T18:19:08.326Z,21.35
2019-05-15T18:21:41.631Z,20.88
2019-05-15T18:24:14.867Z,21.65
2019-05-15T18:26:49.025Z,22.13
2019-05-15T18:29:29.210Z,21.68
2019-05-15T18:32:05.059Z,21.60
2019-05-15T18:34:39.576Z,22.40
2019-05-15T18:37:20.511Z,21.93
2019-05-15T18:40:02.346Z,22.50
2019-05-15T18:42:29.446Z,24.07
2019-05-15T18:45:01.207Z,25.37
2019-05-15T18:47:34.936Z,24.65
2019-05-15T18:50:13.147Z,25.92
2019-05-15T18:52:45.809Z,27.17
2019-05-15T18:55:39.533Z,27.70
2019-05-15T18:58:11.470Z,27.42
2019-05-15T19:00:44.971Z,26.30
2019-05-15T19:03:22.209Z,25.45
2019-05-15T19:05:51.632Z,26.40
2019-05-15T19:08:23.403Z,23.45
2019-05-15T19:10:55.625Z,24.00
2019-05-15T19:13:28.304Z,23.70
2019-05-15T19:16:01.444Z,22.15
2019-05-15T19:18:33.200Z,22.70
2019-05-15T19:21:05.139Z,23.90
2019-05-15T19:23:38.164Z,23.85
2019-05-15T19:26:12.578Z,22.40
2019-05-15T19:28:44.249Z,23.10
2019-05-15T19:31:26.047Z,21.52
2019-05-15T19:33:50.212Z,22.45
2019-05-15T19:36:23.196Z,22.82
2019-05-15T19:38:54.819Z,23.22
2019-05-15T19:41:28.873Z,25.15
2019-05-15T19:44:03.222Z,23.90
2019-05-15T19:46:38.626Z,23.77
2019-05-15T19:49:10.892Z,23.83
2019-05-15T19:51:48.520Z,24.12
2019-05-15T19:54:21.606Z,24.45
2019-05-15T19:56:53.546Z,24.15
2019-05-15T19:59:25.225Z,23.83
2019-05-15T20:01:57.840Z,25.17
2019-05-15T20:04:31.260Z,26.20
2019-05-15T20:07:04.168Z,25.68
2019-05-15T20:09:39.109Z,25.52
2019-05-15T20:12:10.922Z,25.48
2019-05-15T20:14:42.746Z,26.07
2019-05-15T20:17:18.193Z,26.87
2019-05-15T20:19:49.558Z,25.97
2019-05-15T20:22:21.372Z,26.57
2019-05-15T20:24:53.124Z,26.95
2019-05-15T20:27:24.912Z,27.58
2019-05-15T20:29:56.757Z,26.95
2019-05-15T20:32:28.433Z,26.40
2019-05-15T20:35:00.150Z,26.60
2019-05-15T20:37:31.919Z,26.20
2019-05-15T20:40:05.068Z,27.07
2019-05-15T20:42:37.989Z,26.85
2019-05-15T20:45:12.269Z,27.80
2019-05-15T20:47:43.703Z,28.55
2019-05-15T20:50:15.286Z,29.63
2019-05-15T20:52:48.875Z,29.27
2019-05-15T20:55:20.304Z,30.20
2019-05-15T20:57:51.957Z,31.55
2019-05-15T21:00:26.027Z,33.80
2019-05-15T21:02:58.408Z,35.83
2019-05-15T21:05:29.958Z,36.68
2019-05-15T21:08:01.899Z,35.92
2019-05-15T21:10:33.498Z,36.65
2019-05-15T21:13:05.298Z,36.15
2019-05-15T21:15:37.248Z,35.25
2019-05-15T21:18:14.479Z,36.30
2019-05-15T21:20:42.360Z,34.33
2019-05-15T21:23:14.136Z,33.85
2019-05-15T21:25:48.294Z,33.08
2019-05-15T21:28:19.365Z,34.80
2019-05-15T21:30:51.102Z,36.53
2019-05-15T21:33:22.734Z,39.90
2019-05-15T21:35:55.262Z,40.70
2019-05-15T21:38:28.379Z,39.88
2019-05-15T21:41:00.184Z,40.73
2019-05-15T21:43:31.988Z,39.92
2019-05-15T21:46:03.747Z,45.45
2019-05-15T21:48:38.095Z,43.75
2019-05-15T21:51:11.852Z,34.35
2019-05-15T21:53:42.284Z,32.53
2019-05-15T21:56:13.876Z,31.80
2019-05-15T21:58:45.562Z,28.30
2019-05-15T22:01:19.681Z,28.20
2019-05-15T22:03:50.950Z,28.62
2019-05-15T22:06:22.605Z,28.00
2019-05-15T22:08:54.303Z,27.93
2019-05-15T22:11:29.566Z,28.23
2019-05-15T22:14:00.119Z,28.65
2019-05-15T22:16:31.749Z,27.67
2019-05-15T22:19:03.322Z,28.80
2019-05-15T22:21:34.958Z,29.05
2019-05-15T22:24:08.788Z,30.10
2019-05-15T22:26:40.064Z,31.95
2019-05-15T22:29:11.982Z,38.78
2019-05-15T22:31:43.615Z,42.85
2019-05-15T22:34:15.280Z,42.50
2019-05-15T22:36:50.598Z,29.50
2019-05-15T22:39:20.237Z,28.38
2019-05-15T22:41:51.835Z,26.07
2019-05-15T22:44:23.547Z,24.95
2019-05-15T22:46:55.180Z,24.67
2019-05-15T22:49:28.716Z,24.72
2019-05-15T22:52:00.181Z,23.70
2019-05-15T22:54:31.961Z,24.52
2019-05-15T22:57:03.859Z,22.13
2019-05-15T22:59:35.613Z,41.73
2019-05-15T23:02:09.187Z,43.80
2019-05-15T23:04:40.551Z,32.40
2019-05-15T23:07:12.692Z,32.38
2019-05-15T23:09:46.345Z,33.90
2019-05-15T23:12:19.672Z,32.73
2019-05-15T23:14:51.498Z,46.50
2019-05-15T23:17:23.093Z,49.55
2019-05-15T23:19:54.833Z,45.95
2019-05-15T23:22:27.914Z,44.58
2019-05-15T23:24:59.889Z,30.48
2019-05-15T23:27:31.534Z,25.82
2019-05-15T23:30:03.602Z,22.62
2019-05-15T23:32:35.346Z,23.67
2019-05-15T23:35:07.248Z,21.00
2019-05-15T23:37:39.412Z,21.45
2019-05-15T23:40:11.602Z,20.97
2019-05-15T23:42:43.313Z,20.92
2019-05-15T23:45:14.965Z,22.02
2019-05-15T23:47:48.604Z,21.82
2019-05-15T23:50:19.945Z,23.18
2019-05-15T23:52:51.524Z,23.15
2019-05-15T23:55:23.240Z,23.95
2019-05-15T23:57:54.911Z,25.12
